Time;durP1;ratioP1;P1;durP2;ratioP2;P2;SDS_P1;SDS_P2;PMS_P1;PMS_P2;Temp;Humidity;BMP_temperature;BMP_pressure;BME280_temperature;BME280_humidity;BME280_pressure;Samples;Min_cycle;Max_cycle;Signal;HPM_P1;HPM_P2
2023/05/28 00:00:26;;;;;;;6.47;5.40;;;;;;;17.19;nan;99505.91;5070686;28;20323;-84
2023/05/28 00:02:53;;;;;;;9.82;6.03;;;;;;;17.22;nan;99502.97;5071052;28;20641;-84
2023/05/28 00:05:18;;;;;;;9.27;6.20;;;;;;;17.25;nan;99502.69;5070147;28;20446;-83
2023/05/28 00:07:44;;;;;;;8.17;6.30;;;;;;;17.25;nan;99508.84;5065544;28;20211;-83
2023/05/28 00:10:10;;;;;;;8.10;5.47;;;;;;;17.24;nan;99495.72;5072855;28;20266;-83
2023/05/28 00:12:35;;;;;;;10.07;7.00;;;;;;;17.17;nan;99497.25;5072410;28;20237;-83
2023/05/28 00:15:01;;;;;;;7.93;5.80;;;;;;;17.08;nan;99491.00;5074255;28;20459;-83
2023/05/28 00:17:27;;;;;;;8.30;5.87;;;;;;;17.06;nan;99494.75;5054158;28;20202;-83
2023/05/28 00:19:53;;;;;;;6.60;5.73;;;;;;;17.00;nan;99493.50;5071768;28;20236;-83
2023/05/28 00:22:18;;;;;;;11.13;5.23;;;;;;;16.96;nan;99487.66;5071942;28;20477;-83
2023/05/28 00:24:44;;;;;;;10.50;6.43;;;;;;;16.96;nan;99492.97;5071149;28;20218;-84
2023/05/28 00:27:09;;;;;;;10.93;6.57;;;;;;;16.92;nan;99483.59;5071500;28;20197;-83
2023/05/28 00:29:35;;;;;;;9.40;5.50;;;;;;;16.87;nan;99498.28;5069134;28;20200;-84
2023/05/28 00:32:01;;;;;;;14.17;5.87;;;;;;;16.77;nan;99485.03;5050987;28;20209;-83
2023/05/28 00:34:26;;;;;;;8.43;5.10;;;;;;;16.70;nan;99491.84;5074565;28;20536;-83
2023/05/28 00:36:53;;;;;;;8.60;4.93;;;;;;;16.64;nan;99487.09;5049046;28;20608;-83
2023/05/28 00:39:19;;;;;;;7.53;5.67;;;;;;;16.57;nan;99490.28;5072693;28;20204;-83
2023/05/28 00:41:45;;;;;;;8.83;6.00;;;;;;;16.42;nan;99493.47;5070441;28;20536;-83
2023/05/28 00:44:10;;;;;;;5.37;4.83;;;;;;;16.28;nan;99486.75;5072565;28;20243;-83
2023/05/28 00:46:37;;;;;;;8.80;6.70;;;;;;;16.14;nan;99486.16;5054080;28;20746;-84
2023/05/28 00:49:03;;;;;;;8.52;5.22;;;;;;;16.03;nan;99480.16;5053157;28;20240;-83
2023/05/28 00:51:29;;;;;;;13.57;7.55;;;;;;;15.99;nan;99478.78;5053180;28;20218;-83
2023/05/28 00:53:55;;;;;;;11.55;6.38;;;;;;;15.94;nan;99476.50;5051711;28;20200;-84
2023/05/28 00:56:22;;;;;;;8.47;5.37;;;;;;;15.86;nan;99481.66;5072538;28;20254;-83
2023/05/28 00:58:48;;;;;;;8.52;4.75;;;;;;;15.80;nan;99479.53;5078189;28;20551;-84
2023/05/28 01:01:14;;;;;;;6.38;5.05;;;;;;;15.80;nan;99482.19;5057502;28;20222;-82
2023/05/28 01:03:40;;;;;;;10.23;6.07;;;;;;;15.80;nan;99482.19;5076919;28;20225;-84
2023/05/28 01:06:11;;;;;;;8.50;6.22;;;;;;;15.84;nan;99489.72;5056316;28;20424;-83
2023/05/28 01:08:40;;;;;;;6.28;5.65;;;;;;;15.89;nan;99490.16;5076720;28;20186;-83
2023/05/28 01:11:13;;;;;;;6.90;5.05;;;;;;;15.91;nan;99490.03;5080147;28;20207;-83
2023/05/28 01:13:40;;;;;;;5.13;4.32;;;;;;;15.91;nan;99485.56;5079446;28;20528;-83
2023/05/28 01:16:06;;;;;;;8.95;4.10;;;;;;;15.92;nan;99486.41;5074289;28;20202;-83
2023/05/28 01:18:31;;;;;;;9.33;5.23;;;;;;;15.92;nan;99471.34;5072765;28;20240;-83
2023/05/28 01:21:01;;;;;;;9.40;5.07;;;;;;;15.92;nan;99471.34;5066501;28;20235;-84
2023/05/28 01:23:28;;;;;;;9.73;4.13;;;;;;;15.93;nan;99466.88;5072216;28;20447;-83
2023/05/28 01:25:59;;;;;;;14.15;4.63;;;;;;;15.92;nan;99474.00;5050338;28;20391;-83
2023/05/28 01:28:25;;;;;;;6.35;4.20;;;;;;;15.91;nan;99479.44;5072154;28;21217;-83
2023/05/28 01:30:52;;;;;;;6.88;3.92;;;;;;;15.90;nan;99475.09;5072120;28;20215;-83
2023/05/28 01:33:18;;;;;;;5.60;3.55;;;;;;;15.90;nan;99483.03;5049679;28;20207;-83
2023/05/28 01:35:44;;;;;;;6.03;4.72;;;;;;;15.89;nan;99468.97;5052061;28;20477;-83
2023/05/28 01:38:15;;;;;;;8.30;3.87;;;;;;;15.90;nan;99473.31;5056348;28;20856;-83
2023/05/28 01:40:45;;;;;;;6.53;4.75;;;;;;;15.89;nan;99470.78;5072507;28;20252;-82
2023/05/28 01:43:10;;;;;;;7.43;4.20;;;;;;;15.89;nan;99471.63;5049409;28;20286;-83
2023/05/28 01:45:38;;;;;;;5.38;4.55;;;;;;;15.90;nan;99465.38;5048015;28;20259;-83
2023/05/28 01:48:04;;;;;;;8.00;4.65;;;;;;;15.92;nan;99466.03;5048948;28;20571;-83
2023/05/28 01:50:32;;;;;;;5.10;3.78;;;;;;;15.94;nan;99463.28;5067203;28;20218;-83
2023/05/28 01:52:59;;;;;;;5.65;3.97;;;;;;;15.94;nan;99471.22;5057658;28;20276;-83
2023/05/28 01:55:24;;;;;;;6.20;3.53;;;;;;;15.93;nan;99466.88;5049187;28;20209;-84
2023/05/28 01:57:50;;;;;;;6.80;4.13;;;;;;;15.92;nan;99463.41;5049378;28;20220;-83
2023/05/28 02:00:17;;;;;;;10.52;4.18;;;;;;;15.88;nan;99469.13;5046641;28;20239;-82
2023/05/28 02:02:43;;;;;;;5.82;5.20;;;;;;;15.84;nan;99463.22;5070032;28;20437;-82
2023/05/28 02:05:10;;;;;;;7.32;5.15;;;;;;;15.78;nan;99453.19;5047645;28;20225;-83
2023/05/28 02:07:35;;;;;;;7.00;4.17;;;;;;;15.70;nan;99459.16;5069640;28;20288;-83
2023/05/28 02:10:01;;;;;;;6.63;4.90;;;;;;;15.61;nan;99462.56;5045144;28;20280;-83
2023/05/28 02:12:28;;;;;;;9.98;6.03;;;;;;;15.59;nan;99463.69;5065746;28;20684;-82
2023/05/28 02:14:53;;;;;;;7.63;4.77;;;;;;;15.56;nan;99470.06;5068047;28;20219;-83
2023/05/28 02:17:20;;;;;;;5.07;4.43;;;;;;;15.58;nan;99465.50;5047745;28;20211;-83
2023/05/28 02:19:45;;;;;;;6.57;5.17;;;;;;;15.57;nan;99468.25;5052206;28;20219;-83
2023/05/28 02:22:12;;;;;;;7.55;4.70;;;;;;;15.51;nan;99456.41;5049117;28;20233;-82
2023/05/28 02:24:38;;;;;;;8.73;5.03;;;;;;;15.42;nan;99463.34;5069621;28;20238;-83
2023/05/28 02:27:05;;;;;;;7.53;5.35;;;;;;;15.33;nan;99468.56;5048246;28;20253;-83
2023/05/28 02:29:31;;;;;;;9.18;4.68;;;;;;;15.30;nan;99463.53;5073371;28;20298;-83
2023/05/28 02:31:56;;;;;;;4.70;4.10;;;;;;;15.27;nan;99464.63;5051179;28;20219;-83
2023/05/28 02:34:21;;;;;;;7.73;5.10;;;;;;;15.24;nan;99455.16;5051824;28;20219;-83
2023/05/28 02:36:47;;;;;;;5.60;4.20;;;;;;;15.18;nan;99460.13;5074538;28;20204;-83
2023/05/28 02:39:13;;;;;;;7.77;4.90;;;;;;;15.12;nan;99460.63;5056517;28;20326;-83
2023/05/28 02:41:38;;;;;;;7.23;4.97;;;;;;;15.04;nan;99464.78;5052977;28;20225;-83
2023/05/28 02:44:05;;;;;;;8.77;5.55;;;;;;;14.95;nan;99462.91;5053716;28;20239;-82
2023/05/28 02:46:31;;;;;;;8.20;5.77;;;;;;;14.87;nan;99461.88;5052689;28;20552;-83
2023/05/28 02:48:56;;;;;;;5.13;4.60;;;;;;;14.87;nan;99461.88;5053068;28;20688;-84
2023/05/28 02:51:23;;;;;;;7.75;5.35;;;;;;;14.88;nan;99463.53;5052354;28;20634;-83
2023/05/28 02:53:59;;;;;;;8.23;5.32;;;;;;;14.88;nan;99459.13;5050954;28;20217;-83
2023/05/28 02:56:25;;;;;;;7.20;5.07;;;;;;;14.89;nan;99465.25;5052177;28;20296;-83
2023/05/28 02:58:52;;;;;;;10.47;5.47;;;;;;;14.82;nan;99463.13;5054215;28;20216;-82
2023/05/28 03:01:19;;;;;;;9.60;5.65;;;;;;;14.76;nan;99465.41;5054002;28;20572;-83
2023/05/28 03:03:44;;;;;;;7.10;5.20;;;;;;;14.73;nan;99466.50;5067357;28;20228;-83
2023/05/28 03:06:10;;;;;;;7.47;6.63;;;;;;;14.74;nan;99468.22;5050780;28;20220;-84
2023/05/28 03:08:44;;;;;;;7.25;4.85;;;;;;;14.78;nan;99472.25;5051700;28;20315;-83
2023/05/28 03:11:10;;;;;;;12.60;5.00;;;;;;;14.82;nan;99476.34;5050447;28;20250;-84
2023/05/28 03:13:35;;;;;;;7.27;6.00;;;;;;;14.85;nan;99471.75;5052970;28;20217;-83
2023/05/28 03:16:02;;;;;;;10.35;5.00;;;;;;;14.87;nan;99477.75;5069883;28;20390;-83
2023/05/28 03:18:31;;;;;;;8.95;5.22;;;;;;;14.84;nan;99473.56;5047082;28;20699;-83
2023/05/28 03:20:56;;;;;;;6.90;4.70;;;;;;;14.82;nan;99478.97;5080377;22;20308;-84
2023/05/28 03:23:22;;;;;;;10.03;4.73;;;;;;;14.78;nan;99474.91;5071942;28;20711;-82
2023/05/28 03:26:04;;;;;;;5.40;4.90;;;;;;;14.71;nan;99479.00;5076890;27;20202;-82
2023/05/28 03:28:29;;;;;;;7.43;4.73;;;;;;;14.61;nan;99480.75;5090031;28;20214;-81
2023/05/28 03:31:29;;;;;;;7.18;4.80;;;;;;;14.54;nan;99485.69;5096748;27;20754;-82
2023/05/28 03:33:55;;;;;;;10.73;6.07;;;;;;;14.49;nan;99489.66;5073561;28;20212;-81
2023/05/28 03:36:22;;;;;;;9.27;6.43;;;;;;;14.50;nan;99489.53;5070446;28;20508;-82
2023/05/28 03:38:48;;;;;;;6.45;4.45;;;;;;;14.48;nan;99488.81;5074179;28;20970;-82
2023/05/28 03:41:13;;;;;;;8.80;4.43;;;;;;;14.49;nan;99487.00;5072713;28;20229;-82
2023/05/28 03:43:39;;;;;;;4.93;4.43;;;;;;;14.48;nan;99488.00;5085070;28;20221;-82
2023/05/28 03:46:06;;;;;;;6.72;5.25;;;;;;;14.48;nan;99488.00;5071734;28;20305;-82
2023/05/28 03:48:32;;;;;;;7.57;5.20;;;;;;;14.49;nan;99487.84;5073493;28;20210;-82
2023/05/28 03:50:57;;;;;;;7.93;5.50;;;;;;;14.52;nan;99492.03;5072671;28;20215;-82
2023/05/28 03:53:23;;;;;;;7.30;5.70;;;;;;;14.51;nan;99498.31;5071779;28;20204;-81
2023/05/28 03:55:51;;;;;;;6.30;4.03;;;;;;;14.51;nan;99493.00;5069999;28;20707;-82
2023/05/28 03:58:17;;;;;;;8.68;5.82;;;;;;;14.54;nan;99492.78;5071569;28;20433;-82
2023/05/28 04:00:43;;;;;;;7.38;5.47;;;;;;;14.54;nan;99488.34;5071942;28;20541;-82
2023/05/28 04:03:08;;;;;;;7.43;5.40;;;;;;;14.54;nan;99490.16;5070983;28;20238;-82
2023/05/28 04:05:35;;;;;;;11.48;5.85;;;;;;;14.48;nan;99493.28;5072442;28;20230;-81
2023/05/28 04:08:02;;;;;;;8.70;5.63;;;;;;;14.45;nan;99488.25;5087728;28;20219;-82
2023/05/28 04:10:27;;;;;;;9.55;4.95;;;;;;;14.44;nan;99489.19;5072807;28;20572;-82
2023/05/28 04:12:54;;;;;;;6.37;4.90;;;;;;;14.46;nan;99493.38;5073890;28;20830;-82
2023/05/28 04:15:20;;;;;;;7.68;4.80;;;;;;;14.49;nan;99494.94;5074490;28;20208;-82
2023/05/28 04:17:45;;;;;;;7.47;5.20;;;;;;;14.52;nan;99499.97;5074906;28;20231;-82
2023/05/28 04:20:12;;;;;;;12.70;4.40;;;;;;;14.58;nan;99504.78;5073466;28;20211;-82
2023/05/28 04:22:37;;;;;;;10.35;4.35;;;;;;;14.63;nan;99497.31;5073356;28;20314;-82
2023/05/28 04:25:03;;;;;;;7.30;4.97;;;;;;;14.71;nan;99499.31;5087414;28;20311;-82
2023/05/28 04:27:30;;;;;;;10.70;6.23;;;;;;;14.76;nan;99494.50;5071753;28;20252;-82
2023/05/28 04:29:56;;;;;;;8.93;6.28;;;;;;;14.81;nan;99492.31;5073535;28;21020;-81
2023/05/28 04:32:23;;;;;;;9.68;5.50;;;;;;;14.87;nan;99506.84;5074348;28;20260;-82
2023/05/28 04:34:53;;;;;;;8.98;6.57;;;;;;;14.93;nan;99501.03;5076660;28;20998;-82
2023/05/28 04:37:19;;;;;;;7.80;5.50;;;;;;;14.92;nan;99507.28;5077552;28;20207;-82
2023/05/28 04:39:46;;;;;;;8.05;5.68;;;;;;;14.94;nan;99511.50;5076941;28;20219;-82
2023/05/28 04:42:16;;;;;;;11.87;6.13;;;;;;;14.94;nan;99505.38;5076495;28;20235;-83
2023/05/28 04:44:43;;;;;;;11.18;6.60;;;;;;;14.95;nan;99507.03;5094215;28;20216;-82
2023/05/28 04:47:09;;;;;;;10.27;5.55;;;;;;;14.95;nan;99517.63;5091852;28;20227;-83
2023/05/28 04:49:34;;;;;;;8.90;5.20;;;;;;;15.04;nan;99516.84;5094803;28;20747;-82
2023/05/28 04:52:01;;;;;;;8.93;6.65;;;;;;;15.36;nan;99516.75;5093741;28;20520;-82
2023/05/28 04:54:26;;;;;;;5.90;5.10;;;;;;;15.79;nan;99509.63;5076649;28;20483;-83
2023/05/28 04:56:52;;;;;;;8.60;5.20;;;;;;;16.23;nan;99512.81;5075553;28;20216;-83
2023/05/28 04:59:18;;;;;;;9.07;6.17;;;;;;;16.68;nan;99504.38;5094659;28;20219;-83
2023/05/28 05:01:43;;;;;;;7.03;5.20;;;;;;;17.05;nan;99506.38;5073202;28;20694;-82
2023/05/28 05:04:09;;;;;;;13.00;6.53;;;;;;;17.30;nan;99505.75;5092295;28;20224;-83
2023/05/28 05:06:35;;;;;;;13.20;6.15;;;;;;;17.54;nan;99518.56;5076250;28;20205;-82
2023/05/28 05:09:02;;;;;;;7.30;5.73;;;;;;;17.81;nan;99507.16;5076014;28;20203;-82
2023/05/28 05:11:27;;;;;;;11.07;7.10;;;;;;;18.13;nan;99508.53;5074790;28;21137;-83
2023/05/28 05:13:52;;;;;;;6.80;4.77;;;;;;;18.46;nan;99504.41;5074389;28;20203;-82
2023/05/28 05:16:19;;;;;;;8.90;5.73;;;;;;;18.78;nan;99503.09;5092457;28;20451;-83
2023/05/28 05:18:45;;;;;;;9.00;4.87;;;;;;;19.00;nan;99507.94;5092966;28;20205;-82
2023/05/28 05:21:12;;;;;;;7.77;5.83;;;;;;;19.15;nan;99505.56;5076184;28;20462;-82
2023/05/28 05:23:38;;;;;;;12.37;6.23;;;;;;;19.31;nan;99504.84;5090022;28;20302;-83
2023/05/28 05:26:04;;;;;;;9.30;4.90;;;;;;;19.52;nan;99512.44;5072840;28;20451;-83
2023/05/28 05:28:31;;;;;;;8.27;6.53;;;;;;;19.67;nan;99502.91;5071331;28;20432;-82
2023/05/28 05:30:56;;;;;;;9.63;4.97;;;;;;;19.87;nan;99494.66;5072636;28;20447;-83
2023/05/28 05:33:21;;;;;;;10.23;5.13;;;;;;;20.11;nan;99502.75;5089641;28;20217;-83
2023/05/28 05:36:06;;;;;;;8.67;5.50;;;;;;;20.41;nan;99505.00;5088184;28;20250;-83
2023/05/28 05:38:52;;;;;;;4.90;4.20;;;;;;;20.77;nan;99497.63;5089092;28;20513;-83
2023/05/28 05:41:34;;;;;;;7.67;4.97;;;;;;;21.17;nan;99487.91;5072254;28;20743;-83
2023/05/28 05:44:29;;;;;;;5.70;4.97;;;;;;;21.57;nan;99491.53;5079312;28;20480;-83
2023/05/28 05:46:55;;;;;;;8.70;5.10;;;;;;;21.86;nan;99483.75;5069935;28;20464;-83
2023/05/28 05:49:20;;;;;;;5.93;5.33;;;;;;;22.03;nan;99479.16;5089091;28;20316;-83
2023/05/28 05:51:46;;;;;;;7.23;4.93;;;;;;;22.19;nan;99474.78;5074438;28;20421;-83
2023/05/28 05:54:11;;;;;;;9.53;4.80;;;;;;;22.37;nan;99483.34;5073104;28;20204;-83
2023/05/28 05:56:37;;;;;;;6.23;5.00;;;;;;;22.61;nan;99482.38;5074291;28;20242;-83
2023/05/28 05:59:02;;;;;;;7.30;4.50;;;;;;;22.85;nan;99477.84;5069944;28;20228;-83
2023/05/28 06:01:30;;;;;;;6.30;4.97;;;;;;;23.06;nan;99483.38;5071117;28;20321;-83
2023/05/28 06:03:56;;;;;;;9.20;5.20;;;;;;;23.25;nan;99487.41;5071754;28;20429;-83
2023/05/28 06:06:47;;;;;;;18.10;5.23;;;;;;;23.40;nan;99490.91;5090943;28;20468;-83
2023/05/28 06:09:31;;;;;;;4.87;4.23;;;;;;;23.59;nan;99497.56;5092299;28;20477;-83
2023/05/28 06:12:03;;;;;;;5.90;5.13;;;;;;;;;;5076367;28;20468;-82
2023/05/28 06:14:28;;;;;;;6.80;6.20;;;;;;;23.86;nan;99492.59;5075418;28;20432;-83
2023/05/28 06:16:54;;;;;;;6.80;4.33;;;;;;;23.96;nan;99489.66;5078741;28;20212;-83
2023/05/28 06:19:19;;;;;;;9.33;5.40;;;;;;;24.02;nan;99491.56;5096186;28;20465;-82
2023/05/28 06:21:45;;;;;;;9.03;5.10;;;;;;;24.18;nan;99493.22;5079627;28;20475;-83
2023/05/28 06:24:10;;;;;;;12.20;5.87;;;;;;;24.37;nan;99484.56;5088311;28;20227;-82
2023/05/28 06:26:37;;;;;;;9.00;5.50;;;;;;;24.51;nan;99485.56;5074379;28;20207;-83
2023/05/28 06:29:02;;;;;;;9.77;5.07;;;;;;;24.63;nan;99484.03;5073198;28;20452;-82
2023/05/28 06:31:29;;;;;;;6.10;4.03;;;;;;;24.80;nan;99489.97;5074447;28;20634;-83
2023/05/28 06:33:55;;;;;;;5.90;4.67;;;;;;;24.80;nan;99495.34;5072952;28;20500;-83
2023/05/28 06:36:22;;;;;;;6.60;4.23;;;;;;;24.86;nan;99493.75;5072601;28;20577;-83
2023/05/28 06:38:47;;;;;;;6.47;4.73;;;;;;;25.01;nan;99497.19;5071686;28;20379;-83
2023/05/28 06:41:13;;;;;;;8.07;5.47;;;;;;;25.00;nan;99490.13;5072304;28;21105;-82
2023/05/28 06:43:45;;;;;;;6.33;4.37;;;;;;;25.03;nan;99491.59;5074060;28;20200;-83
2023/05/28 06:46:17;;;;;;;7.33;4.77;;;;;;;25.02;nan;99490.78;5075952;28;20432;-82
2023/05/28 06:48:42;;;;;;;6.37;5.00;;;;;;;25.22;nan;99493.69;5076470;28;20710;-82
2023/05/28 06:51:12;;;;;;;5.00;3.73;;;;;;;25.43;nan;99492.78;5073633;28;20209;-82
2023/05/28 06:53:38;;;;;;;7.37;4.77;;;;;;;25.62;nan;99499.31;5076425;28;20423;-81
2023/05/28 06:56:08;;;;;;;9.53;4.83;;;;;;;25.72;nan;99497.09;5080021;28;20433;-82
2023/05/28 06:58:39;;;;;;;8.47;5.73;;;;;;;25.80;nan;99496.94;5094885;28;20952;-82
2023/05/28 07:01:27;;;;;;;9.03;4.70;;;;;;;25.94;nan;99492.47;5074109;28;21016;-82
2023/05/28 07:04:25;;;;;;;8.55;5.55;;;;;;;26.11;nan;99486.72;5035908;28;20448;-81
2023/05/28 07:06:58;;;;;;;10.63;5.67;;;;;;;26.08;nan;99489.84;5079258;28;20212;-82
2023/05/28 07:09:29;;;;;;;5.37;4.47;;;;;;;26.02;nan;99494.16;5079272;28;20622;-81
2023/05/28 07:11:55;;;;;;;5.90;4.13;;;;;;;26.13;nan;99490.88;5093749;28;21067;-81
2023/05/28 07:14:20;;;;;;;6.93;4.60;;;;;;;26.32;nan;99489.28;5075037;28;20452;-81
2023/05/28 07:16:47;;;;;;;5.27;4.00;;;;;;;26.55;nan;99488.16;5074002;28;20190;-81
2023/05/28 07:19:12;;;;;;;7.03;4.63;;;;;;;26.73;nan;99484.84;5089881;28;20425;-81
2023/05/28 07:21:38;;;;;;;6.40;4.00;;;;;;;26.65;nan;99478.63;5069694;28;20243;-82
2023/05/28 07:24:05;;;;;;;8.43;5.40;;;;;;;26.65;nan;99478.63;5079185;28;21759;-82
2023/05/28 07:26:35;;;;;;;10.47;4.43;;;;;;;26.68;nan;99477.38;5079101;28;20443;-83
2023/05/28 07:29:01;;;;;;;5.60;4.50;;;;;;;26.75;nan;99483.59;5077235;28;20482;-82
2023/05/28 07:31:28;;;;;;;5.73;3.97;;;;;;;26.85;nan;99481.34;5096557;28;21317;-82
2023/05/28 07:34:02;;;;;;;8.23;5.30;;;;;;;26.93;nan;99478.44;5078586;28;20429;-80
2023/05/28 07:36:31;;;;;;;6.27;3.80;;;;;;;27.04;nan;99477.00;5076487;28;20209;-82
2023/05/28 07:38:57;;;;;;;8.10;4.80;;;;;;;27.12;nan;99476.78;5096296;28;20432;-81
2023/05/28 07:41:23;;;;;;;6.20;4.10;;;;;;;27.06;nan;99482.19;5077822;28;20696;-82
2023/05/28 07:43:56;;;;;;;12.10;4.97;;;;;;;27.03;nan;99483.44;5076415;28;20568;-82
2023/05/28 07:46:25;;;;;;;6.13;4.10;;;;;;;27.12;nan;99484.88;5076711;28;20431;-83
2023/05/28 07:49:06;;;;;;;6.53;4.50;;;;;;;27.23;nan;99486.13;5079991;28;20402;-82
2023/05/28 07:51:46;;;;;;;4.30;3.90;;;;;;;27.33;nan;99478.47;5083675;28;20418;-82
2023/05/28 07:54:19;;;;;;;13.63;4.20;;;;;;;27.24;nan;99486.97;5078612;28;20452;-82
2023/05/28 07:56:46;;;;;;;5.93;3.43;;;;;;;27.10;nan;99484.25;5080438;28;20430;-82
2023/05/28 07:59:18;;;;;;;6.50;3.37;;;;;;;27.15;nan;99484.44;5080665;28;20436;-82
2023/05/28 08:01:47;;;;;;;7.20;4.90;;;;;;;27.37;nan;99489.66;5082977;28;20411;-82
2023/05/28 08:04:22;;;;;;;8.20;4.57;;;;;;;27.55;nan;99478.22;5079187;28;20537;-82
2023/05/28 08:06:48;;;;;;;8.87;5.60;;;;;;;27.65;nan;99478.56;5079129;28;20433;-82
2023/05/28 08:09:17;;;;;;;5.27;4.00;;;;;;;27.55;nan;99472.81;5100048;28;20441;-82
2023/05/28 08:11:46;;;;;;;4.50;3.83;;;;;;;27.44;nan;99479.69;5085502;28;20441;-82
2023/05/28 08:14:12;;;;;;;6.10;4.00;;;;;;;27.22;nan;99478.25;5085140;28;20429;-82
2023/05/28 08:16:40;;;;;;;5.23;4.30;;;;;;;27.05;nan;99473.25;5085040;28;20232;-81
2023/05/28 08:19:15;;;;;;;4.63;3.60;;;;;;;26.80;nan;99474.91;5081406;28;20422;-80
2023/05/28 08:21:42;;;;;;;6.77;4.60;;;;;;;26.57;nan;99465.38;5073556;28;20555;-82
2023/05/28 08:24:10;;;;;;;6.60;4.60;;;;;;;26.40;nan;99472.13;5065191;28;20786;-82
2023/05/28 08:26:35;;;;;;;6.30;4.00;;;;;;;26.16;nan;99470.81;5062378;28;20285;-83
2023/05/28 08:29:01;;;;;;;5.70;4.20;;;;;;;25.91;nan;99471.34;5058514;28;20449;-81
2023/05/28 08:31:29;;;;;;;6.97;4.43;;;;;;;25.78;nan;99473.94;5060340;28;20301;-82
2023/05/28 08:34:16;;;;;;;7.43;4.90;;;;;;;25.86;nan;99467.59;5058735;28;20460;-81
2023/05/28 08:36:43;;;;;;;7.10;4.40;;;;;;;25.93;nan;99471.16;5068879;28;20478;-83
2023/05/28 08:39:13;;;;;;;5.53;4.00;;;;;;;25.94;nan;99465.56;5068779;28;20461;-82
2023/05/28 08:41:42;;;;;;;5.57;4.00;;;;;;;26.01;nan;99462.91;5068144;28;20466;-82
2023/05/28 08:44:09;;;;;;;8.60;4.30;;;;;;;26.20;nan;99464.00;5065230;28;20497;-82
2023/05/28 08:46:36;;;;;;;11.80;4.80;;;;;;;26.35;nan;99455.75;5060720;28;20909;-82
2023/05/28 08:49:26;;;;;;;6.73;3.90;;;;;;;26.39;nan;99446.25;5057778;28;20421;-80
2023/05/28 08:51:53;;;;;;;4.50;3.60;;;;;;;26.53;nan;99441.72;5060845;28;20455;-82
2023/05/28 08:54:22;;;;;;;6.77;5.67;;;;;;;26.64;nan;99446.50;5057691;28;20530;-82
2023/05/28 08:56:48;;;;;;;7.73;4.33;;;;;;;26.74;nan;99435.34;5060142;28;20618;-82
2023/05/28 08:59:13;;;;;;;5.83;4.33;;;;;;;26.80;nan;99431.81;5062320;28;20205;-83
2023/05/28 09:01:39;;;;;;;8.00;4.17;;;;;;;26.85;nan;99429.31;5061482;28;20223;-82
2023/05/28 09:04:07;;;;;;;7.40;4.20;;;;;;;26.84;nan;99424.94;5052054;28;20224;-80
2023/05/28 09:06:38;;;;;;;7.83;4.93;;;;;;;26.79;nan;99420.19;5053369;28;20546;-82
2023/05/28 09:09:07;;;;;;;7.53;4.40;;;;;;;26.92;nan;99416.66;5055655;28;20433;-81
2023/05/28 09:11:46;;;;;;;5.70;4.53;;;;;;;27.01;nan;99423.50;5056653;28;21299;-81
2023/05/28 09:14:17;;;;;;;6.83;4.00;;;;;;;27.12;nan;99425.56;5056692;28;20447;-82
2023/05/28 09:16:44;;;;;;;7.03;4.30;;;;;;;27.19;nan;99422.03;5058997;28;20447;-82
2023/05/28 09:19:15;;;;;;;5.87;4.37;;;;;;;27.27;nan;99422.63;5043944;28;20551;-82
2023/05/28 09:24:22;;;;;;;5.47;3.57;;;;;;;27.66;nan;99412.78;5002034;28;20488;-89
2023/05/28 09:27:19;;;;;;;5.57;4.40;;;;;;;27.69;nan;99423.16;4994929;28;20811;-86
2023/05/28 09:29:46;;;;;;;7.80;5.57;;;;;;;27.66;nan;99409.28;5007891;28;20452;-87
2023/05/28 09:32:17;;;;;;;6.63;4.40;;;;;;;27.66;nan;99415.50;5024515;28;20431;-87
2023/05/28 09:34:43;;;;;;;7.82;4.50;;;;;;;27.66;nan;99402.00;5026763;28;20516;-86
2023/05/28 09:37:08;;;;;;;3.57;3.27;;;;;;;27.63;nan;99404.31;5024387;28;20208;-86
2023/05/28 09:39:34;;;;;;;9.33;3.80;;;;;;;27.69;nan;99398.03;5028770;28;20283;-84
2023/05/28 09:42:09;;;;;;;4.43;4.00;;;;;;;27.77;nan;99395.09;5022667;28;20617;-85
2023/05/28 09:44:36;;;;;;;8.70;3.50;;;;;;;27.79;nan;99399.25;5020150;28;20619;-84
2023/05/28 09:47:11;;;;;;;5.40;4.10;;;;;;;27.89;nan;99395.28;5024417;28;20463;-85
2023/05/28 09:49:36;;;;;;;6.63;3.60;;;;;;;27.94;nan;99401.69;5021093;28;21043;-85
2023/05/28 09:52:04;;;;;;;5.00;3.87;;;;;;;27.97;nan;99395.84;5015942;28;20762;-87
2023/05/28 09:54:31;;;;;;;5.63;4.20;;;;;;;27.96;nan;99393.38;5018580;28;20191;-83
2023/05/28 09:57:05;;;;;;;5.87;4.50;;;;;;;27.95;nan;99397.09;5024238;28;20464;-86
2023/05/28 09:59:32;;;;;;;8.13;4.50;;;;;;;27.90;nan;99389.66;5020889;28;20453;-87
2023/05/28 10:02:05;;;;;;;5.50;4.13;;;;;;;28.05;nan;99393.94;5024734;28;20448;-83
2023/05/28 10:04:36;;;;;;;6.30;4.47;;;;;;;28.13;nan;99391.00;5026896;28;20470;-84
2023/05/28 10:07:05;;;;;;;4.40;4.00;;;;;;;28.15;nan;99386.22;5024333;28;20846;-83
2023/05/28 10:09:33;;;;;;;4.67;4.10;;;;;;;28.20;nan;99389.09;5031514;28;20530;-86
2023/05/28 10:12:10;;;;;;;7.23;3.67;;;;;;;28.24;nan;99390.28;5023951;28;20577;-87
2023/05/28 10:14:37;;;;;;;8.93;4.57;;;;;;;28.32;nan;99387.31;5024275;28;20469;-84
2023/05/28 10:17:02;;;;;;;8.03;3.70;;;;;;;28.43;nan;99380.41;5009683;28;20461;-84
2023/05/28 10:19:28;;;;;;;8.97;4.23;;;;;;;28.49;nan;99373.31;5019776;28;20465;-82
2023/05/28 10:21:55;;;;;;;5.40;4.33;;;;;;;28.52;nan;99375.59;5024449;28;20229;-85
2023/05/28 10:24:22;;;;;;;9.23;4.30;;;;;;;28.58;nan;99369.31;5012122;28;20540;-87
2023/05/28 10:26:47;;;;;;;7.07;3.73;;;;;;;28.56;nan;99369.50;5023293;28;21128;-85
2023/05/28 10:29:13;;;;;;;6.40;4.50;;;;;;;28.57;nan;99375.72;5012417;28;20535;-85
2023/05/28 10:31:38;;;;;;;6.17;5.00;;;;;;;28.58;nan;99364.72;5029406;28;20261;-86
2023/05/28 10:34:17;;;;;;;5.90;4.20;;;;;;;28.65;nan;99368.22;5006103;28;20211;-82
2023/05/28 10:36:53;;;;;;;5.67;3.67;;;;;;;28.52;nan;99364.78;5028292;28;20455;-84
2023/05/28 10:39:21;;;;;;;8.10;4.40;;;;;;;28.29;nan;99370.75;5029918;28;21019;-84
2023/05/28 10:41:48;;;;;;;7.13;4.20;;;;;;;28.24;nan;99363.28;5030007;28;20458;-86
2023/05/28 10:44:14;;;;;;;5.47;4.40;;;;;;;28.29;nan;99366.16;5024466;28;20518;-85
2023/05/28 10:46:40;;;;;;;5.67;4.20;;;;;;;28.33;nan;99372.78;5026282;28;20483;-84
2023/05/28 10:49:14;;;;;;;5.37;3.50;;;;;;;28.33;nan;99353.88;5025238;28;20535;-88
2023/05/28 10:51:44;;;;;;;6.40;3.70;;;;;;;28.32;nan;99370.28;5023692;28;20994;-88
2023/05/28 10:54:14;;;;;;;11.87;5.63;;;;;;;28.28;nan;99351.00;5026297;28;20441;-89
2023/05/28 10:57:06;;;;;;;9.20;4.00;;;;;;;28.34;nan;99358.22;5025137;28;20551;-83
2023/05/28 10:59:45;;;;;;;5.73;4.40;;;;;;;28.36;nan;99356.13;5012487;28;20457;-83
2023/05/28 11:02:20;;;;;;;5.27;3.27;;;;;;;28.21;nan;99359.13;5020804;28;20458;-88
2023/05/28 11:04:49;;;;;;;7.10;3.10;;;;;;;28.09;nan;99357.38;5011984;28;21230;-87
2023/05/28 11:07:15;;;;;;;4.40;4.00;;;;;;;28.11;nan;99352.56;5020871;28;20465;-84
2023/05/28 11:09:41;;;;;;;8.13;4.00;;;;;;;28.20;nan;99353.97;5023140;28;20466;-88
2023/05/28 11:12:07;;;;;;;6.67;3.67;;;;;;;28.21;nan;99348.34;5015355;28;20249;-87
2023/05/28 11:14:35;;;;;;;5.23;3.83;;;;;;;28.18;nan;99350.66;5018987;28;20547;-86
2023/05/28 11:17:01;;;;;;;6.73;3.90;;;;;;;28.18;nan;99347.97;5019327;28;20211;-83
2023/05/28 11:19:26;;;;;;;4.93;3.33;;;;;;;28.12;nan;99349.66;5017790;28;20475;-83
2023/05/28 11:21:55;;;;;;;5.13;3.90;;;;;;;28.08;nan;99351.13;5021003;28;20205;-87
2023/05/28 11:24:21;;;;;;;6.77;3.30;;;;;;;28.11;nan;99347.16;5020522;28;20228;-85
2023/05/28 11:26:47;;;;;;;5.97;3.80;;;;;;;28.11;nan;99341.75;5020196;28;20494;-86
2023/05/28 11:29:13;;;;;;;4.33;3.93;;;;;;;28.01;nan;99345.78;5003296;28;20885;-88
2023/05/28 11:31:40;;;;;;;8.70;4.20;;;;;;;27.87;nan;99346.91;5001628;28;20203;-86
2023/05/28 11:34:06;;;;;;;7.97;4.27;;;;;;;27.75;nan;99343.19;5021908;28;21032;-89
2023/05/28 11:36:38;;;;;;;8.43;4.10;;;;;;;27.68;nan;99342.41;5020184;28;20869;-83
2023/05/28 11:39:03;;;;;;;5.30;4.03;;;;;;;27.63;nan;99344.94;5020135;28;20499;-84
2023/05/28 11:41:30;;;;;;;7.07;4.17;;;;;;;27.49;nan;99344.16;5022417;28;20980;-88
2023/05/28 11:43:56;;;;;;;7.30;4.30;;;;;;;27.40;nan;99342.75;5018957;28;20231;-84
2023/05/28 11:46:22;;;;;;;4.57;3.93;;;;;;;27.43;nan;99340.44;5016808;28;20461;-86
2023/05/28 11:48:47;;;;;;;4.57;3.63;;;;;;;27.50;nan;99337.72;5018244;28;20222;-85
2023/05/28 11:51:13;;;;;;;6.90;4.03;;;;;;;27.56;nan;99337.69;5018953;28;20464;-86
2023/05/28 11:53:43;;;;;;;6.30;3.90;;;;;;;27.66;nan;99337.22;5016510;28;20240;-89
2023/05/28 11:56:09;;;;;;;4.90;4.50;;;;;;;27.74;nan;99330.75;5018074;28;20208;-87